Time;durP1;ratioP1;P1;durP2;ratioP2;P2;SDS_P1;SDS_P2;PMS_P1;PMS_P2;Temp;Humidity;BMP_temperature;BMP_pressure;BME280_temperature;BME280_humidity;BME280_pressure;Samples;Min_cycle;Max_cycle;Signal;HPM_P1;HPM_P2
2022/03/21 00:00:38;;;;;;;15.00;10.75;;;4.30;91.80;;;;;;5072310;28;20239;-73
2022/03/21 00:03:07;;;;;;;15.48;10.90;;;4.30;91.80;;;;;;5070556;28;20217;-73
2022/03/21 00:05:35;;;;;;;14.45;10.27;;;4.20;92.00;;;;;;5071001;28;20247;-73
2022/03/21 00:08:02;;;;;;;14.60;10.60;;;4.20;92.00;;;;;;5070160;28;20185;-73
2022/03/21 00:10:29;;;;;;;15.73;9.98;;;4.20;92.10;;;;;;5070420;28;20223;-73
2022/03/21 00:12:56;;;;;;;16.48;10.75;;;4.10;92.20;;;;;;5068712;28;20229;-75
2022/03/21 00:15:23;;;;;;;13.30;10.30;;;4.10;92.70;;;;;;5067467;28;20225;-73
2022/03/21 00:17:50;;;;;;;12.10;9.90;;;4.00;92.60;;;;;;5066130;28;20196;-73
2022/03/21 00:20:19;;;;;;;17.50;10.85;;;4.00;92.60;;;;;;5062369;28;20235;-73
2022/03/21 00:22:46;;;;;;;13.68;10.32;;;4.00;92.60;;;;;;5058844;28;20209;-73
2022/03/21 00:25:13;;;;;;;12.80;10.15;;;3.90;92.50;;;;;;5051730;28;20229;-73
2022/03/21 00:27:40;;;;;;;15.05;11.38;;;3.90;92.60;;;;;;5050554;28;20223;-73
2022/03/21 00:30:09;;;;;;;19.35;10.98;;;3.90;93.00;;;;;;5050562;28;20208;-73
2022/03/21 00:32:36;;;;;;;12.50;10.07;;;3.80;92.70;;;;;;5053459;28;20254;-73
2022/03/21 00:35:04;;;;;;;14.45;10.15;;;3.80;92.70;;;;;;5049908;28;20248;-73
2022/03/21 00:37:33;;;;;;;12.13;9.43;;;3.70;92.70;;;;;;5049064;28;20201;-73
2022/03/21 00:39:59;;;;;;;12.77;9.73;;;3.70;92.90;;;;;;5049013;28;20213;-73
2022/03/21 00:42:27;;;;;;;13.98;10.07;;;3.60;92.70;;;;;;5048272;28;20734;-73
2022/03/21 00:44:54;;;;;;;13.57;9.98;;;3.50;92.50;;;;;;5049283;28;20220;-73
2022/03/21 00:47:21;;;;;;;13.80;10.30;;;3.50;92.60;;;;;;5047863;28;20680;-73
2022/03/21 00:49:48;;;;;;;11.35;9.27;;;3.50;92.70;;;;;;5050468;28;20205;-73
2022/03/21 00:52:15;;;;;;;14.65;10.93;;;3.50;93.00;;;;;;5051287;28;20683;-73
2022/03/21 00:54:43;;;;;;;11.98;9.80;;;3.40;93.00;;;;;;5052516;28;20229;-74
2022/03/21 00:57:10;;;;;;;13.20;8.80;;;3.40;93.20;;;;;;5051653;28;20205;-75
2022/03/21 01:02:08;;;;;;;15.68;10.90;;;3.40;93.40;;;;;;5070135;28;20224;-72
2022/03/21 01:04:35;;;;;;;13.38;10.20;;;3.40;93.40;;;;;;5073251;28;20216;-72
2022/03/21 01:07:02;;;;;;;12.55;9.63;;;3.40;93.60;;;;;;5072592;28;20205;-72
2022/03/21 01:09:29;;;;;;;15.52;10.68;;;3.40;93.60;;;;;;5073365;28;20204;-72
2022/03/21 01:11:57;;;;;;;13.88;10.57;;;3.30;93.70;;;;;;5073578;28;20208;-72
2022/03/21 01:14:24;;;;;;;12.50;9.15;;;3.30;93.90;;;;;;5073372;28;20200;-72
2022/03/21 01:16:54;;;;;;;11.68;9.20;;;3.30;94.00;;;;;;5073358;28;20277;-72
2022/03/21 01:19:20;;;;;;;14.52;10.77;;;3.20;94.00;;;;;;5072969;28;20269;-72
2022/03/21 01:21:47;;;;;;;17.10;10.80;;;3.20;94.10;;;;;;5073363;28;20236;-72
2022/03/21 01:24:14;;;;;;;13.32;9.70;;;3.10;94.20;;;;;;5073116;28;20204;-72
2022/03/21 01:26:40;;;;;;;11.77;9.52;;;3.10;94.40;;;;;;5072748;28;20211;-73
2022/03/21 01:29:08;;;;;;;14.15;10.38;;;3.00;94.30;;;;;;5073218;28;20852;-72
2022/03/21 01:31:35;;;;;;;13.35;10.15;;;3.10;94.20;;;;;;5072917;28;20582;-72
2022/03/21 01:34:02;;;;;;;15.95;10.70;;;3.10;94.10;;;;;;5073063;28;20208;-73
2022/03/21 01:36:29;;;;;;;15.90;11.43;;;3.00;94.20;;;;;;5072667;28;20227;-73
2022/03/21 01:38:55;;;;;;;14.60;10.73;;;3.00;94.30;;;;;;5072562;28;20204;-72
2022/03/21 01:41:22;;;;;;;13.18;10.25;;;3.00;94.20;;;;;;5072621;28;20770;-72
2022/03/21 01:43:56;;;;;;;19.50;11.07;;;3.00;94.40;;;;;;5073155;28;20660;-72
2022/03/21 01:46:24;;;;;;;14.98;10.00;;;2.90;94.40;;;;;;5072547;28;20639;-73
2022/03/21 01:48:51;;;;;;;13.68;10.13;;;2.90;94.60;;;;;;5072459;28;20218;-73
2022/03/21 01:51:18;;;;;;;15.95;10.52;;;2.90;94.30;;;;;;5072689;28;20201;-72
2022/03/21 01:56:29;;;;;;;13.93;10.93;;;3.00;94.60;;;;;;5072556;28;20219;-72
2022/03/21 01:58:56;;;;;;;15.02;11.27;;;2.90;94.60;;;;;;5071674;28;20231;-73
2022/03/21 02:01:24;;;;;;;17.58;10.65;;;2.80;94.70;;;;;;5085960;28;20269;-73
2022/03/21 02:03:51;;;;;;;14.43;11.00;;;2.80;94.90;;;;;;5092342;28;20212;-72
2022/03/21 02:06:18;;;;;;;12.73;9.75;;;2.80;95.00;;;;;;5092611;28;20612;-73
2022/03/21 02:08:46;;;;;;;13.93;10.32;;;2.70;95.20;;;;;;5091828;28;20200;-73
2022/03/21 02:11:15;;;;;;;15.48;10.65;;;2.70;95.40;;;;;;5092656;28;20204;-73
2022/03/21 02:13:42;;;;;;;16.75;12.15;;;2.70;95.60;;;;;;5092424;28;20204;-73
2022/03/21 02:16:09;;;;;;;14.48;11.48;;;2.70;95.50;;;;;;5092306;28;20686;-73
2022/03/21 02:18:41;;;;;;;12.95;9.77;;;2.70;95.50;;;;;;5091801;28;20206;-73
2022/03/21 02:21:15;;;;;;;15.38;10.85;;;2.70;95.40;;;;;;5092257;28;20242;-73
2022/03/21 02:23:46;;;;;;;17.67;10.10;;;2.60;95.40;;;;;;5092309;28;20196;-73
2022/03/21 02:26:15;;;;;;;14.57;10.30;;;2.60;95.30;;;;;;5091702;28;20227;-72
2022/03/21 02:28:43;;;;;;;12.68;9.77;;;2.60;95.50;;;;;;5091788;28;20227;-72
2022/03/21 02:31:10;;;;;;;13.60;10.05;;;2.60;95.40;;;;;;5092066;28;20223;-72
2022/03/21 02:33:37;;;;;;;16.98;11.13;;;2.60;95.30;;;;;;5092063;28;20204;-72
2022/03/21 02:36:05;;;;;;;14.27;10.00;;;2.70;95.30;;;;;;5091847;28;20222;-72
2022/03/21 02:38:34;;;;;;;12.52;9.93;;;2.60;95.10;;;;;;5091488;28;20227;-72
2022/03/21 02:41:02;;;;;;;14.50;10.45;;;2.60;95.20;;;;;;5091837;28;20219;-72
2022/03/21 02:43:30;;;;;;;12.30;9.52;;;2.60;95.50;;;;;;5091973;28;20226;-72
2022/03/21 02:46:05;;;;;;;12.07;10.00;;;2.60;95.10;;;;;;5091643;28;20216;-72
2022/03/21 02:48:31;;;;;;;13.23;9.82;;;2.70;95.00;;;;;;5091355;28;20252;-72
2022/03/21 02:51:02;;;;;;;14.15;10.05;;;2.70;95.10;;;;;;5091492;28;20203;-72
2022/03/21 02:53:32;;;;;;;15.15;11.27;;;2.70;95.30;;;;;;5091930;28;20200;-72
2022/03/21 02:55:59;;;;;;;15.00;10.73;;;2.70;95.50;;;;;;5091642;28;20635;-72
2022/03/21 02:58:26;;;;;;;13.25;10.30;;;2.70;95.50;;;;;;5091224;28;20200;-73
2022/03/21 03:01:05;;;;;;;13.63;10.05;;;2.80;95.60;;;;;;5091480;28;20234;-72
2022/03/21 03:03:32;;;;;;;16.98;11.13;;;2.80;95.70;;;;;;5091675;28;20584;-72
2022/03/21 03:05:58;;;;;;;14.35;10.70;;;2.80;95.90;;;;;;5091390;28;20226;-72
2022/03/21 03:08:25;;;;;;;12.65;11.00;;;2.80;95.80;;;;;;5090916;28;20215;-72
2022/03/21 03:10:52;;;;;;;11.98;10.02;;;2.80;95.80;;;;;;5091652;28;20208;-72
2022/03/21 03:13:18;;;;;;;14.02;10.63;;;2.80;95.90;;;;;;5090493;28;20211;-72
2022/03/21 03:15:47;;;;;;;14.85;10.10;;;2.80;95.90;;;;;;5091401;28;20220;-72
2022/03/21 03:18:15;;;;;;;11.73;9.55;;;2.70;95.90;;;;;;5090634;28;20265;-72
2022/03/21 03:20:48;;;;;;;11.52;9.15;;;2.80;95.80;;;;;;5091324;28;20245;-72
2022/03/21 03:23:16;;;;;;;13.63;10.40;;;2.70;95.80;;;;;;5091086;28;20231;-72
2022/03/21 03:25:43;;;;;;;16.52;10.45;;;2.70;95.80;;;;;;5091131;28;20223;-72
2022/03/21 03:28:09;;;;;;;12.82;10.10;;;2.60;95.80;;;;;;5090517;28;20207;-72
2022/03/21 03:30:36;;;;;;;14.32;10.90;;;2.60;95.70;;;;;;5091129;28;20204;-72
2022/03/21 03:33:03;;;;;;;12.30;9.77;;;2.60;95.70;;;;;;5090919;28;20202;-72
2022/03/21 03:35:31;;;;;;;12.25;9.60;;;2.50;95.60;;;;;;5091211;28;20231;-72
2022/03/21 03:37:58;;;;;;;16.80;9.85;;;2.50;95.60;;;;;;5090245;28;20210;-72
2022/03/21 03:40:25;;;;;;;13.88;10.43;;;2.40;95.60;;;;;;5091179;28;20665;-72
2022/03/21 03:42:51;;;;;;;13.82;10.00;;;2.40;95.60;;;;;;5090920;28;20628;-72
2022/03/21 03:45:19;;;;;;;12.70;9.38;;;2.30;95.40;;;;;;5090755;28;20721;-72
2022/03/21 03:47:46;;;;;;;13.45;10.13;;;2.30;95.40;;;;;;5090502;28;20774;-72
2022/03/21 03:50:13;;;;;;;15.95;11.05;;;2.30;95.50;;;;;;5091166;28;20235;-72
2022/03/21 03:52:45;;;;;;;14.95;9.80;;;2.20;95.50;;;;;;5091089;28;20200;-72
2022/03/21 03:55:12;;;;;;;12.88;10.13;;;2.20;95.60;;;;;;5090443;28;21008;-72
2022/03/21 03:57:38;;;;;;;15.85;9.57;;;2.20;95.80;;;;;;5090426;28;20260;-72
2022/03/21 04:00:07;;;;;;;14.05;9.75;;;2.20;95.90;;;;;;5090393;28;20207;-72
2022/03/21 04:03:44;;;;;;;13.90;9.45;;;2.20;96.00;;;;;;5090961;28;20231;-72
2022/03/21 04:05:22;;;;;;;13.60;10.20;;;2.10;96.00;;;;;;5090324;28;20716;-72
2022/03/21 04:07:50;;;;;;;15.55;9.55;;;2.10;96.00;;;;;;5090112;28;20254;-72
2022/03/21 04:10:17;;;;;;;12.60;10.50;;;2.10;95.90;;;;;;5090604;28;20613;-72
2022/03/21 04:12:46;;;;;;;14.45;11.07;;;2.10;95.80;;;;;;5090653;28;20207;-72
2022/03/21 04:15:13;;;;;;;18.83;10.98;;;2.00;95.90;;;;;;5090347;28;20228;-72
2022/03/21 04:17:40;;;;;;;17.08;11.30;;;2.10;96.00;;;;;;5089956;28;20196;-72
2022/03/21 04:20:08;;;;;;;13.23;9.57;;;2.10;96.00;;;;;;5090489;28;20203;-71
2022/03/21 04:22:35;;;;;;;13.88;9.85;;;2.00;96.00;;;;;;5090648;28;20254;-72
2022/03/21 04:25:05;;;;;;;16.42;10.10;;;2.00;96.20;;;;;;5094259;28;20652;-72
2022/03/21 04:27:32;;;;;;;15.20;10.45;;;2.00;96.10;;;;;;5094096;28;20204;-72
2022/03/21 04:29:59;;;;;;;13.02;10.07;;;2.00;96.10;;;;;;5094261;28;20206;-72
2022/03/21 04:32:26;;;;;;;13.13;9.63;;;1.90;96.10;;;;;;5084613;28;20193;-71
2022/03/21 04:34:53;;;;;;;18.02;11.10;;;1.90;96.40;;;;;;5055722;28;20224;-71
2022/03/21 04:37:20;;;;;;;17.02;10.90;;;1.90;96.60;;;;;;5061319;28;20201;-73
2022/03/21 04:39:47;;;;;;;11.25;9.90;;;1.90;96.70;;;;;;5062793;28;20541;-73
2022/03/21 04:42:16;;;;;;;15.40;10.68;;;1.80;96.80;;;;;;5063369;28;20216;-72
2022/03/21 04:44:44;;;;;;;13.40;10.45;;;1.80;96.90;;;;;;5062223;28;20217;-72
2022/03/21 04:47:11;;;;;;;14.00;10.40;;;1.80;97.30;;;;;;5061200;28;20203;-72
2022/03/21 04:49:38;;;;;;;15.32;11.45;;;1.70;96.90;;;;;;5063577;28;20687;-72
2022/03/21 04:52:06;;;;;;;13.25;10.20;;;1.80;97.00;;;;;;5062189;28;20201;-72
2022/03/21 04:54:33;;;;;;;13.80;10.45;;;1.80;96.80;;;;;;5064322;28;20236;-72
2022/03/21 04:57:00;;;;;;;14.82;10.25;;;1.70;96.90;;;;;;5072541;28;20437;-72
2022/03/21 04:59:28;;;;;;;12.25;9.00;;;1.70;97.10;;;;;;5073448;28;20192;-72
2022/03/21 05:01:54;;;;;;;14.70;10.30;;;1.70;97.10;;;;;;5062751;28;20235;-72
2022/03/21 05:04:22;;;;;;;12.05;10.57;;;1.70;97.00;;;;;;5063153;28;20200;-72
2022/03/21 05:06:49;;;;;;;14.20;9.30;;;1.70;97.00;;;;;;5062089;28;20209;-72
2022/03/21 05:09:18;;;;;;;13.43;10.07;;;1.60;97.20;;;;;;5060984;28;20224;-71
2022/03/21 05:11:45;;;;;;;15.52;10.48;;;1.60;97.10;;;;;;5066882;28;20196;-72
2022/03/21 05:14:12;;;;;;;15.82;10.25;;;1.60;96.80;;;;;;5061214;28;20204;-73
2022/03/21 05:16:40;;;;;;;15.00;9.55;;;1.60;96.80;;;;;;5062695;28;20552;-72
2022/03/21 05:19:07;;;;;;;12.30;9.50;;;1.60;96.70;;;;;;5061979;28;20205;-72
2022/03/21 05:21:33;;;;;;;14.50;10.05;;;1.60;96.70;;;;;;5060993;28;20597;-72
2022/03/21 05:32:14;;;;;;;12.77;9.80;;;1.50;96.60;;;;;;5071745;28;20209;-72
2022/03/21 05:37:25;;;;;;;11.80;8.85;;;1.60;96.30;;;;;;5073025;28;20199;-72
2022/03/21 05:42:36;;;;;;;16.17;9.60;;;1.50;96.30;;;;;;5073158;28;20235;-73
2022/03/21 05:45:02;;;;;;;14.35;9.43;;;1.50;96.50;;;;;;5072791;28;20220;-73
2022/03/21 05:47:30;;;;;;;12.05;9.85;;;1.50;96.50;;;;;;5072630;28;20205;-73
2022/03/21 05:49:56;;;;;;;13.65;9.77;;;1.60;96.30;;;;;;5072580;28;20544;-73
2022/03/21 05:52:23;;;;;;;16.80;8.93;;;1.60;96.40;;;;;;5073032;28;20199;-72
2022/03/21 05:54:50;;;;;;;13.27;9.50;;;1.60;96.40;;;;;;5072681;28;20768;-73
2022/03/21 05:57:17;;;;;;;13.30;9.25;;;1.60;96.40;;;;;;5072467;28;20201;-73
2022/03/21 06:02:27;;;;;;;14.55;10.00;;;1.60;96.40;;;;;;5072690;28;20227;-73
2022/03/21 06:04:55;;;;;;;14.25;10.68;;;1.70;96.40;;;;;;5072665;28;20254;-73
2022/03/21 06:07:22;;;;;;;16.23;10.57;;;1.70;96.20;;;;;;5072111;28;20207;-73
2022/03/21 06:09:49;;;;;;;15.25;10.13;;;1.80;96.30;;;;;;5072686;28;20211;-73
2022/03/21 06:12:16;;;;;;;13.35;9.13;;;1.80;96.30;;;;;;5072095;28;20197;-73
2022/03/21 06:14:42;;;;;;;12.38;9.70;;;1.90;96.30;;;;;;5072445;28;20227;-73
2022/03/21 06:17:09;;;;;;;14.82;10.30;;;2.00;96.40;;;;;;5071825;28;20200;-73
2022/03/21 06:19:36;;;;;;;16.23;10.30;;;2.10;96.40;;;;;;5072220;28;20613;-73
2022/03/21 06:22:04;;;;;;;14.75;10.23;;;2.20;96.20;;;;;;5072163;28;20698;-74
2022/03/21 06:24:31;;;;;;;13.48;9.57;;;2.30;96.20;;;;;;5072211;28;20224;-73
2022/03/21 06:26:58;;;;;;;12.77;9.80;;;2.30;96.00;;;;;;5071562;28;20200;-73
2022/03/21 06:29:24;;;;;;;11.90;9.10;;;2.40;96.00;;;;;;5072200;28;20216;-73
2022/03/21 06:31:51;;;;;;;13.63;9.18;;;2.60;95.60;;;;;;5072061;28;20200;-73
2022/03/21 06:34:18;;;;;;;12.32;9.50;;;2.60;95.70;;;;;;5072137;28;20204;-73
2022/03/21 06:36:44;;;;;;;13.90;10.00;;;2.70;95.80;;;;;;5071128;28;20683;-73
2022/03/21 06:39:12;;;;;;;13.48;9.85;;;2.80;95.80;;;;;;5071715;28;20582;-73
2022/03/21 06:41:40;;;;;;;13.95;10.20;;;2.90;95.80;;;;;;5071570;28;20205;-73
2022/03/21 06:44:06;;;;;;;12.45;9.32;;;3.00;95.80;;;;;;5071575;28;20659;-73
2022/03/21 06:46:33;;;;;;;17.15;10.55;;;3.10;95.90;;;;;;5071401;28;20588;-73
2022/03/21 06:49:00;;;;;;;14.23;9.82;;;3.20;96.00;;;;;;5069143;28;20215;-73
2022/03/21 06:51:29;;;;;;;13.40;9.32;;;3.40;96.00;;;;;;5089263;28;20199;-73
2022/03/21 06:53:55;;;;;;;13.82;10.85;;;3.50;95.90;;;;;;5090135;28;20215;-73
2022/03/21 06:56:24;;;;;;;13.82;10.73;;;3.60;95.80;;;;;;5090072;28;20228;-73
2022/03/21 06:58:50;;;;;;;14.65;10.00;;;3.80;95.80;;;;;;5089630;28;20671;-73
2022/03/21 07:01:17;;;;;;;15.13;9.73;;;4.00;95.80;;;;;;5090023;28;20211;-74
2022/03/21 07:03:44;;;;;;;12.88;10.20;;;4.20;95.90;;;;;;5089718;28;20234;-73
2022/03/21 07:06:14;;;;;;;13.73;10.27;;;4.40;96.40;;;;;;5087646;28;20224;-73
2022/03/21 07:08:40;;;;;;;14.07;10.90;;;4.60;96.20;;;;;;5090705;28;20203;-73
2022/03/21 07:11:12;;;;;;;13.00;11.15;;;4.90;95.70;;;;;;5090077;28;20199;-73
2022/03/21 07:13:40;;;;;;;12.85;10.63;;;5.10;95.90;;;;;;5090938;28;20196;-73
2022/03/21 07:16:08;;;;;;;14.05;10.57;;;5.40;96.10;;;;;;5090296;28;20721;-73
2022/03/21 07:18:34;;;;;;;14.00;11.20;;;5.80;95.80;;;;;;5089863;28;20210;-73
2022/03/21 07:21:01;;;;;;;16.75;10.43;;;6.20;95.50;;;;;;5090348;28;20245;-73
2022/03/21 07:23:28;;;;;;;15.52;10.18;;;6.60;95.10;;;;;;5090761;28;20628;-73
2022/03/21 07:25:55;;;;;;;15.05;11.80;;;7.00;94.70;;;;;;5147732;22;20234;-75
2022/03/21 07:28:22;;;;;;;15.05;11.70;;;7.50;94.60;;;;;;5100718;28;20196;-76
2022/03/21 07:30:50;;;;;;;14.57;11.13;;;7.90;93.90;;;;;;5089153;28;20208;-73
2022/03/21 07:33:18;;;;;;;14.18;10.75;;;8.40;94.40;;;;;;5089959;28;20234;-75
2022/03/21 07:35:45;;;;;;;15.60;11.45;;;8.80;93.60;;;;;;5090189;28;20247;-75
2022/03/21 07:38:13;;;;;;;15.95;11.35;;;9.30;92.10;;;;;;5089597;28;20195;-75
2022/03/21 07:40:41;;;;;;;15.90;12.88;;;9.80;91.90;;;;;;5089767;28;20200;-75
2022/03/21 07:43:10;;;;;;;12.85;10.05;;;10.30;91.20;;;;;;5089699;28;20663;-75
2022/03/21 07:48:30;;;;;;;14.32;9.95;;;10.40;78.60;;;;;;5074826;28;20203;-77
2022/03/21 07:51:01;;;;;;;12.15;10.52;;;10.50;76.80;;;;;;5070121;28;20208;-76
2022/03/21 07:53:31;;;;;;;11.45;9.82;;;10.60;76.80;;;;;;5070153;28;20206;-75
2022/03/21 07:56:17;;;;;;;12.48;10.38;;;11.00;77.40;;;;;;5069046;28;20247;-76
2022/03/21 07:58:59;;;;;;;12.00;9.95;;;11.50;77.50;;;;;;5068692;28;20196;-77
2022/03/21 08:01:30;;;;;;;11.60;10.40;;;11.50;75.40;;;;;;5069979;28;20670;-76
2022/03/21 08:04:00;;;;;;;15.10;10.70;;;11.20;74.10;;;;;;5069540;28;20248;-76
2022/03/21 08:06:37;;;;;;;12.57;9.50;;;10.90;74.00;;;;;;5069941;28;20243;-75
2022/03/21 08:09:07;;;;;;;12.77;9.77;;;11.40;75.00;;;;;;5069737;28;20321;-76
2022/03/21 08:11:37;;;;;;;13.00;10.23;;;12.10;74.40;;;;;;5069900;28;20308;-76
2022/03/21 08:14:12;;;;;;;12.43;10.03;;;12.80;74.70;;;;;;5070079;28;20266;-76
2022/03/21 08:16:39;;;;;;;13.93;10.50;;;13.40;74.00;;;;;;5069653;28;20470;-76
2022/03/21 08:19:16;;;;;;;15.03;10.60;;;14.00;74.60;;;;;;5068993;28;20461;-75
2022/03/21 08:21:43;;;;;;;14.90;11.30;;;14.40;75.00;;;;;;5069806;28;20828;-76
2022/03/21 08:24:15;;;;;;;14.97;11.43;;;14.90;74.80;;;;;;5069166;28;21016;-76
2022/03/21 08:26:54;;;;;;;15.63;12.13;;;15.40;75.30;;;;;;5069064;28;20561;-76
2022/03/21 08:29:24;;;;;;;16.13;11.67;;;15.90;72.60;;;;;;5069928;28;20454;-76
2022/03/21 08:32:02;;;;;;;16.53;11.93;;;16.50;73.50;;;;;;5068839;28;20462;-76
2022/03/21 08:34:32;;;;;;;14.60;12.00;;;17.10;72.00;;;;;;5068964;28;20454;-76
2022/03/21 08:37:00;;;;;;;18.17;12.00;;;17.50;72.40;;;;;;5069287;28;20463;-76
2022/03/21 08:39:27;;;;;;;14.00;11.67;;;17.80;71.40;;;;;;5069817;28;20462;-76
2022/03/21 08:41:53;;;;;;;14.40;12.67;;;18.20;67.80;;;;;;5069225;28;20463;-76
2022/03/21 08:44:20;;;;;;;13.40;12.00;;;18.30;68.80;;;;;;5068953;28;20856;-76
2022/03/21 08:46:47;;;;;;;14.50;12.17;;;18.50;67.50;;;;;;5068918;28;20466;-76
2022/03/21 08:49:27;;;;;;;14.80;11.50;;;18.90;67.80;;;;;;5069192;28;20958;-76
2022/03/21 08:51:55;;;;;;;13.53;11.67;;;18.80;66.40;;;;;;5069066;28;21010;-76
2022/03/21 08:54:22;;;;;;;14.40;11.70;;;18.90;67.50;;;;;;5069822;28;20461;-75
2022/03/21 08:56:49;;;;;;;12.63;11.37;;;19.40;68.30;;;;;;5069739;28;20458;-75
2022/03/21 08:59:16;;;;;;;14.80;12.77;;;19.80;66.10;;;;;;5070315;28;20979;-75
2022/03/21 09:01:43;;;;;;;13.90;12.50;;;20.30;64.40;;;;;;5070462;28;20458;-75
2022/03/21 09:04:10;;;;;;;15.07;12.10;;;20.10;64.20;;;;;;5069575;28;20490;-75
2022/03/21 09:06:37;;;;;;;14.50;11.70;;;20.20;64.80;;;;;;5070469;28;20520;-75
2022/03/21 09:09:05;;;;;;;13.43;12.00;;;20.90;64.20;;;;;;5069488;28;20912;-76
2022/03/21 09:11:32;;;;;;;13.27;11.97;;;21.30;64.90;;;;;;5072777;28;20469;-75
2022/03/21 09:13:59;;;;;;;16.47;14.77;;;21.50;63.50;;;;;;5073934;28;20469;-75
2022/03/21 09:16:36;;;;;;;;;;;;;;;;;;;;;
2022/03/21 09:19:14;;;;;;;14.90;13.40;;;22.20;63.20;;;;;;5073111;28;20494;-75
2022/03/21 09:21:46;;;;;;;13.50;11.97;;;22.70;62.20;;;;;;5073360;28;20454;-75
2022/03/21 09:24:18;;;;;;;13.00;11.80;;;22.80;61.80;;;;;;5074270;28;21038;-74
2022/03/21 09:26:48;;;;;;;14.67;13.07;;;23.20;62.40;;;;;;5074806;28;20477;-74
2022/03/21 09:29:15;;;;;;;15.50;12.30;;;23.40;60.20;;;;;;5070809;28;20484;-75
2022/03/21 09:31:42;;;;;;;14.73;13.20;;;23.10;60.20;;;;;;5072379;28;20502;-74
2022/03/21 09:34:11;;;;;;;15.67;13.30;;;22.60;59.80;;;;;;5071376;28;20540;-75
2022/03/21 09:36:39;;;;;;;12.57;11.30;;;21.90;61.80;;;;;;5071129;28;20462;-75
2022/03/21 09:39:08;;;;;;;15.30;12.10;;;22.20;61.60;;;;;;5071340;28;20538;-75
2022/03/21 09:41:36;;;;;;;15.33;13.77;;;22.80;61.80;;;;;;5071825;28;20465;-75
2022/03/21 09:44:07;;;;;;;12.70;11.40;;;23.20;61.00;;;;;;5071146;28;20512;-75
2022/03/21 09:46:34;;;;;;;15.77;14.07;;;23.20;61.90;;;;;;5071288;28;20827;-75
2022/03/21 09:49:03;;;;;;;13.50;12.17;;;24.00;61.10;;;;;;5071332;28;20458;-75
2022/03/21 09:51:31;;;;;;;14.50;12.90;;;24.80;58.90;;;;;;5071551;28;20463;-74
2022/03/21 09:53:59;;;;;;;13.83;12.50;;;25.30;58.70;;;;;;5071518;28;20459;-75
2022/03/21 09:56:28;;;;;;;13.67;12.37;;;25.60;58.10;;;;;;5071448;28;20489;-75
2022/03/21 09:58:59;;;;;;;14.73;13.20;;;25.90;57.60;;;;;;5070722;28;20975;-75
2022/03/21 10:01:26;;;;;;;14.27;12.80;;;25.90;56.90;;;;;;5071767;28;20466;-75
2022/03/21 10:03:53;;;;;;;15.10;12.70;;;26.20;56.40;;;;;;5071473;28;21042;-75
2022/03/21 10:06:31;;;;;;;16.63;13.40;;;26.30;56.70;;;;;;5070656;28;20478;-75
2022/03/21 10:09:11;;;;;;;15.20;12.93;;;26.50;55.50;;;;;;5070638;28;20466;-74
2022/03/21 10:11:39;;;;;;;15.03;13.33;;;25.70;55.70;;;;;;5071263;28;20503;-75
2022/03/21 10:14:24;;;;;;;15.50;13.90;;;25.20;56.10;;;;;;5071043;28;20956;-75
2022/03/21 10:16:51;;;;;;;17.50;13.70;;;24.10;56.10;;;;;;5070600;28;20489;-75
2022/03/21 10:19:18;;;;;;;13.80;12.40;;;23.70;56.70;;;;;;5071577;28;20460;-75
2022/03/21 10:22:00;;;;;;;15.27;13.70;;;23.70;57.40;;;;;;5069773;28;20985;-75
2022/03/21 10:24:27;;;;;;;19.33;13.67;;;23.40;57.50;;;;;;5071349;28;20493;-75
2022/03/21 10:26:54;;;;;;;15.37;13.73;;;23.10;58.40;;;;;;5069841;28;20467;-74
2022/03/21 10:29:22;;;;;;;15.67;14.00;;;22.50;57.30;;;;;;5070855;28;20520;-75
2022/03/21 10:31:52;;;;;;;15.53;14.10;;;21.60;60.10;;;;;;5070900;28;20458;-74
2022/03/21 10:34:20;;;;;;;14.77;12.80;;;21.80;59.70;;;;;;5070825;28;20640;-75
2022/03/21 10:37:01;;;;;;;15.77;14.27;;;22.30;59.90;;;;;;5069951;28;20458;-75
2022/03/21 10:39:28;;;;;;;16.10;14.50;;;23.10;58.10;;;;;;5071054;28;20454;-74
2022/03/21 10:41:57;;;;;;;21.30;15.17;;;23.30;58.30;;;;;;5070906;28;20470;-75
2022/03/21 10:44:26;;;;;;;14.70;13.23;;;23.40;57.80;;;;;;5070346;28;20492;-75
2022/03/21 10:46:54;;;;;;;14.90;13.33;;;23.50;57.80;;;;;;5069538;28;20919;-74
2022/03/21 10:49:29;;;;;;;16.67;13.90;;;23.90;59.00;;;;;;5071037;28;20537;-75
2022/03/21 10:51:56;;;;;;;14.37;12.87;;;24.60;58.40;;;;;;5070316;28;21024;-75
2022/03/21 10:54:40;;;;;;;14.27;12.80;;;24.70;57.90;;;;;;5070714;28;20637;-75
2022/03/21 10:57:09;;;;;;;18.03;12.80;;;25.10;57.70;;;;;;5072018;28;20481;-75
2022/03/21 10:59:37;;;;;;;16.03;13.93;;;25.40;57.70;;;;;;5069840;28;20468;-75
2022/03/21 11:02:12;;;;;;;17.53;13.20;;;25.70;56.40;;;;;;5070471;28;20835;-75
2022/03/21 11:04:41;;;;;;;15.67;14.07;;;25.40;56.90;;;;;;5070483;28;20573;-75
2022/03/21 11:07:11;;;;;;;15.20;13.40;;;25.60;57.10;;;;;;5069218;28;20460;-75
2022/03/21 11:09:39;;;;;;;13.93;12.53;;;25.90;57.20;;;;;;5070542;28;20454;-75
2022/03/21 11:12:08;;;;;;;13.70;11.87;;;25.90;57.00;;;;;;5069941;28;20463;-75
2022/03/21 11:14:39;;;;;;;14.73;13.13;;;25.60;57.70;;;;;;5070314;28;20478;-75
2022/03/21 11:17:07;;;;;;;14.93;12.93;;;25.50;56.90;;;;;;5070002;28;20459;-75
2022/03/21 11:19:34;;;;;;;13.23;11.93;;;25.20;57.40;;;;;;5070797;28;20469;-73
2022/03/21 11:22:01;;;;;;;14.00;12.50;;;25.00;57.00;;;;;;5069388;28;21094;-74
2022/03/21 11:24:28;;;;;;;15.67;14.07;;;24.80;57.40;;;;;;5070724;28;20549;-73
2022/03/21 11:27:03;;;;;;;14.80;13.30;;;24.30;56.50;;;;;;5074757;28;20466;-73
2022/03/21 11:29:46;;;;;;;15.50;13.90;;;23.80;58.70;;;;;;5091214;28;20481;-72
2022/03/21 11:32:26;;;;;;;16.57;12.50;;;23.10;58.80;;;;;;5091275;28;20464;-74
2022/03/21 11:35:02;;;;;;;15.80;14.17;;;23.00;59.70;;;;;;5091350;28;20480;-74
2022/03/21 11:37:31;;;;;;;16.07;13.70;;;22.70;59.80;;;;;;5091672;28;20457;-73
2022/03/21 11:40:30;;;;;;;15.10;13.60;;;22.60;57.90;;;;;;5091380;28;20454;-73
2022/03/21 11:43:32;;;;;;;14.37;12.90;;;22.60;59.60;;;;;;5091504;28;20829;-73
2022/03/21 11:46:18;;;;;;;15.50;13.93;;;23.00;59.70;;;;;;5091130;28;20995;-73
2022/03/21 11:48:45;;;;;;;15.50;13.90;;;23.00;59.20;;;;;;5090915;28;20480;-73
2022/03/21 11:51:37;;;;;;;15.77;14.17;;;23.10;60.00;;;;;;5090865;28;20455;-73
2022/03/21 11:54:07;;;;;;;18.30;16.07;;;23.70;59.20;;;;;;5091452;28;20968;-73
2022/03/21 11:57:03;;;;;;;16.17;14.50;;;24.00;58.20;;;;;;5090957;28;20513;-72
2022/03/21 12:00:14;;;;;;;14.87;13.27;;;24.50;58.90;;;;;;5091736;28;20459;-72
2022/03/21 12:02:57;;;;;;;16.67;13.80;;;25.10;58.10;;;;;;5091571;28;20458;-74
2022/03/21 12:05:52;;;;;;;16.03;14.10;;;25.80;56.80;;;;;;5090915;28;20489;-75
2022/03/21 12:08:50;;;;;;;17.93;14.90;;;26.50;56.00;;;;;;5091163;28;20902;-75
2022/03/21 12:11:58;;;;;;;16.53;14.63;;;26.60;55.50;;;;;;5090951;28;20505;-76
2022/03/21 12:14:40;;;;;;;16.23;14.63;;;26.90;54.40;;;;;;5081103;28;20454;-76
2022/03/21 12:17:41;;;;;;;14.93;13.50;;;26.80;54.90;;;;;;5090744;28;20511;-75
2022/03/21 12:20:16;;;;;;;16.70;14.73;;;27.10;55.20;;;;;;5090961;28;20457;-75
2022/03/21 12:22:47;;;;;;;15.80;14.10;;;27.40;54.50;;;;;;5091316;28;20460;-75
2022/03/21 12:25:17;;;;;;;15.83;13.13;;;27.40;53.30;;;;;;5091113;28;20498;-75
2022/03/21 12:27:46;;;;;;;16.20;14.60;;;27.40;54.60;;;;;;5090865;28;20468;-74
2022/03/21 12:30:32;;;;;;;14.90;12.87;;;27.80;51.90;;;;;;5091023;28;20464;-75
2022/03/21 12:33:01;;;;;;;16.60;14.90;;;28.10;52.40;;;;;;5090806;28;21007;-75
2022/03/21 12:35:53;;;;;;;16.23;14.63;;;28.20;53.30;;;;;;5091411;28;20481;-75
2022/03/21 12:38:22;;;;;;;15.93;14.33;;;28.40;52.20;;;;;;5087223;28;20466;-75
2022/03/21 12:40:58;;;;;;;14.20;12.70;;;28.40;51.80;;;;;;5091229;28;20880;-74
2022/03/21 12:43:27;;;;;;;17.90;14.70;;;28.30;52.80;;;;;;5090901;28;20944;-75
2022/03/21 12:45:58;;;;;;;14.97;13.27;;;28.00;51.40;;;;;;5094528;28;20486;-73
2022/03/21 12:48:30;;;;;;;15.57;13.80;;;27.80;52.60;;;;;;5094390;28;20460;-75
2022/03/21 12:50:58;;;;;;;15.10;13.67;;;27.40;53.10;;;;;;5094492;28;20457;-75
2022/03/21 12:53:35;;;;;;;16.00;14.40;;;27.40;52.20;;;;;;5094617;28;20462;-74
2022/03/21 12:56:03;;;;;;;16.03;13.13;;;27.10;52.60;;;;;;5094193;28;20763;-75
2022/03/21 12:58:30;;;;;;;18.50;14.03;;;26.80;53.60;;;;;;5094087;28;20938;-75
2022/03/21 13:00:57;;;;;;;16.23;14.50;;;26.50;53.40;;;;;;5094284;28;20464;-74
2022/03/21 13:03:25;;;;;;;15.20;13.47;;;26.20;53.20;;;;;;5094217;28;20461;-75
2022/03/21 13:11:24;;;;;;;14.80;13.20;;;26.10;52.00;;;;;;5094141;28;20441;-74
2022/03/21 13:13:54;;;;;;;15.70;14.20;;;25.60;53.60;;;;;;5094007;28;20456;-74
2022/03/21 13:16:21;;;;;;;13.33;11.93;;;25.00;54.00;;;;;;5093622;28;21045;-75
2022/03/21 13:18:50;;;;;;;15.53;13.93;;;24.90;54.50;;;;;;5093512;28;20879;-75